Time;durP1;ratioP1;P1;durP2;ratioP2;P2;SDS_P1;SDS_P2;PMS_P1;PMS_P2;Temp;Humidity;BMP_temperature;BMP_pressure;BME280_temperature;BME280_humidity;BME280_pressure;Samples;Min_cycle;Max_cycle;Signal;HPM_P1;HPM_P2
2022/10/16 00:00:17;;;;;;;6.13;1.63;;;12.70;99.90;;;;;;5054738;28;20309;-81
2022/10/16 00:02:43;;;;;;;6.68;1.35;;;12.60;99.90;;;;;;5055031;28;20044;-81
2022/10/16 00:05:09;;;;;;;6.57;1.30;;;12.60;99.90;;;;;;5071763;28;20036;-81
2022/10/16 00:07:34;;;;;;;6.35;1.30;;;12.60;99.90;;;;;;5071180;28;20509;-81
2022/10/16 00:10:00;;;;;;;6.50;1.50;;;12.60;99.90;;;;;;5072185;28;20036;-81
2022/10/16 00:12:25;;;;;;;5.03;1.05;;;12.60;99.90;;;;;;5054873;28;20155;-81
2022/10/16 00:14:51;;;;;;;3.80;1.47;;;12.50;99.90;;;;;;5071388;28;20036;-81
2022/10/16 00:17:17;;;;;;;7.65;1.83;;;12.50;99.90;;;;;;5054691;28;20271;-81
2022/10/16 00:19:43;;;;;;;7.65;1.90;;;12.50;99.90;;;;;;5053414;28;20089;-80
2022/10/16 00:22:08;;;;;;;4.30;1.30;;;12.50;99.90;;;;;;5071184;28;20079;-81
2022/10/16 00:24:34;;;;;;;2.90;1.13;;;12.50;99.90;;;;;;5020320;28;20045;-81
2022/10/16 00:27:00;;;;;;;3.88;1.08;;;12.50;99.90;;;;;;5054769;28;20275;-81
2022/10/16 00:29:25;;;;;;;7.83;1.23;;;12.50;99.90;;;;;;5037382;28;20408;-81
2022/10/16 00:31:51;;;;;;;7.15;1.60;;;12.50;99.90;;;;;;5037906;28;20593;-81
2022/10/16 00:34:16;;;;;;;3.40;1.13;;;12.50;99.90;;;;;;5037851;28;20040;-81
2022/10/16 00:36:42;;;;;;;3.37;0.90;;;12.50;99.90;;;;;;5053559;28;20847;-81
2022/10/16 00:39:08;;;;;;;7.90;1.42;;;12.60;99.90;;;;;;5070791;28;20067;-81
2022/10/16 00:41:34;;;;;;;6.28;1.42;;;12.60;99.90;;;;;;5054001;28;20040;-80
2022/10/16 00:44:04;;;;;;;5.95;1.20;;;12.60;99.90;;;;;;5054585;28;20381;-81
2022/10/16 00:46:39;;;;;;;4.47;1.15;;;12.50;99.90;;;;;;5070581;28;20044;-82
2022/10/16 00:49:12;;;;;;;3.97;1.08;;;12.60;99.90;;;;;;5070448;28;20098;-81
2022/10/16 00:51:46;;;;;;;5.70;1.45;;;12.60;99.90;;;;;;5070393;28;20045;-81
2022/10/16 00:54:20;;;;;;;3.95;1.00;;;12.60;99.90;;;;;;5053812;28;20075;-81
2022/10/16 00:56:46;;;;;;;7.22;1.48;;;12.60;99.90;;;;;;5070806;28;20046;-82
2022/10/16 00:59:19;;;;;;;3.70;1.20;;;12.70;99.90;;;;;;5070435;28;20116;-81
2022/10/16 01:01:45;;;;;;;6.10;1.35;;;12.70;99.90;;;;;;5069969;28;20051;-82
2022/10/16 01:04:10;;;;;;;7.32;1.15;;;12.70;99.90;;;;;;5054113;28;20044;-82
2022/10/16 01:06:46;;;;;;;4.63;1.20;;;12.70;99.90;;;;;;5034520;28;20040;-82
2022/10/16 01:09:22;;;;;;;8.18;1.27;;;12.70;99.90;;;;;;5070191;28;20339;-81
2022/10/16 01:12:00;;;;;;;4.63;1.23;;;12.70;99.90;;;;;;5070094;28;20040;-82
2022/10/16 01:14:39;;;;;;;4.68;1.23;;;12.70;99.90;;;;;;5052513;28;20036;-81
2022/10/16 01:17:09;;;;;;;3.35;0.95;;;12.80;99.90;;;;;;5069336;28;20036;-82
2022/10/16 01:19:44;;;;;;;5.22;1.00;;;12.80;99.90;;;;;;5051231;28;20039;-81
2022/10/16 01:22:10;;;;;;;5.15;1.00;;;12.80;99.90;;;;;;5069921;28;20451;-82
2022/10/16 01:24:35;;;;;;;1.70;0.90;;;12.80;99.90;;;;;;5067376;28;20532;-81
2022/10/16 01:27:10;;;;;;;10.37;1.57;;;12.80;99.90;;;;;;5070015;28;20131;-82
2022/10/16 01:29:52;;;;;;;3.45;1.10;;;12.80;99.90;;;;;;5069409;28;20369;-82
2022/10/16 01:32:39;;;;;;;4.63;1.00;;;12.70;99.90;;;;;;5067252;28;20054;-81
2022/10/16 01:35:09;;;;;;;5.68;0.98;;;12.70;99.90;;;;;;5069870;28;20063;-82
2022/10/16 01:37:46;;;;;;;3.20;1.02;;;12.70;99.90;;;;;;5068887;28;20057;-82
2022/10/16 01:40:14;;;;;;;4.50;1.15;;;12.70;99.90;;;;;;5068984;28;20512;-82
2022/10/16 01:42:47;;;;;;;3.95;0.95;;;12.60;99.90;;;;;;5068439;28;20041;-82
2022/10/16 01:45:17;;;;;;;3.88;0.93;;;12.60;99.90;;;;;;5069831;28;20496;-82
2022/10/16 01:47:44;;;;;;;7.18;1.30;;;12.70;99.90;;;;;;5066977;28;20145;-82
2022/10/16 01:50:10;;;;;;;3.20;1.08;;;12.70;99.90;;;;;;5069919;28;20496;-82
2022/10/16 01:52:41;;;;;;;7.20;0.98;;;12.80;99.90;;;;;;5069245;28;20043;-82
2022/10/16 01:55:10;;;;;;;5.05;1.70;;;12.80;99.90;;;;;;5050519;28;20043;-82
2022/10/16 01:57:40;;;;;;;6.00;1.30;;;12.70;99.90;;;;;;5052579;28;20040;-82
2022/10/16 02:00:10;;;;;;;3.88;1.10;;;12.70;99.90;;;;;;5069832;28;20036;-82
2022/10/16 02:02:38;;;;;;;3.55;1.08;;;12.70;99.90;;;;;;5068985;28;20040;-82
2022/10/16 02:05:15;;;;;;;3.17;1.23;;;12.70;99.90;;;;;;5069525;28;20043;-82
2022/10/16 02:07:42;;;;;;;7.05;1.30;;;12.70;99.90;;;;;;5068985;28;20051;-82
2022/10/16 02:10:09;;;;;;;6.47;1.27;;;12.70;99.90;;;;;;5052975;28;20043;-81
2022/10/16 02:12:39;;;;;;;3.92;1.20;;;12.70;99.90;;;;;;5068940;28;20067;-81
2022/10/16 02:15:05;;;;;;;6.40;1.13;;;12.60;99.90;;;;;;5069954;28;20481;-81
2022/10/16 02:17:31;;;;;;;3.60;1.08;;;12.60;99.90;;;;;;5052249;28;20043;-81
2022/10/16 02:19:59;;;;;;;4.40;1.20;;;12.60;99.90;;;;;;5052597;28;20040;-81
2022/10/16 02:22:33;;;;;;;4.05;1.30;;;12.60;99.90;;;;;;5034517;28;20041;-81
2022/10/16 02:25:21;;;;;;;3.65;1.10;;;12.60;99.90;;;;;;5052592;28;20036;-81
2022/10/16 02:28:19;;;;;;;2.38;0.95;;;12.70;99.90;;;;;;5049864;28;20036;-80
2022/10/16 02:31:01;;;;;;;2.88;0.95;;;12.60;99.90;;;;;;5066806;28;20041;-81
2022/10/16 02:33:28;;;;;;;4.97;1.25;;;12.70;99.90;;;;;;5067282;28;20040;-81
2022/10/16 02:35:55;;;;;;;4.90;1.50;;;12.70;99.90;;;;;;5052176;28;20037;-81
2022/10/16 02:38:22;;;;;;;4.78;1.27;;;12.70;99.90;;;;;;5035791;28;20041;-81
2022/10/16 02:40:48;;;;;;;5.18;1.35;;;12.70;99.90;;;;;;5066342;28;20041;-81
2022/10/16 02:43:14;;;;;;;4.82;1.35;;;12.70;99.90;;;;;;5055826;28;20047;-81
2022/10/16 02:45:43;;;;;;;3.97;0.98;;;12.60;99.90;;;;;;5039056;28;20169;-81
2022/10/16 02:48:09;;;;;;;4.55;1.00;;;12.70;99.90;;;;;;5056242;28;20119;-81
2022/10/16 02:50:35;;;;;;;4.25;1.30;;;12.70;99.90;;;;;;5055932;28;20170;-81
2022/10/16 02:53:01;;;;;;;3.63;0.97;;;12.70;99.90;;;;;;5071980;28;20508;-81
2022/10/16 02:55:27;;;;;;;1.92;0.77;;;12.70;99.90;;;;;;5072839;28;20685;-81
2022/10/16 02:57:53;;;;;;;3.85;0.88;;;12.80;99.90;;;;;;5072199;28;20510;-81
2022/10/16 03:00:20;;;;;;;3.63;1.08;;;12.80;99.90;;;;;;5072998;28;20036;-81
2022/10/16 03:02:46;;;;;;;1.23;0.70;;;13.00;99.90;;;;;;5072140;28;20059;-81
2022/10/16 03:05:13;;;;;;;4.40;1.17;;;13.00;99.90;;;;;;5039362;28;20044;-81
2022/10/16 03:07:39;;;;;;;;;;;13.10;99.90;;;;;;5056074;28;20566;-81
2022/10/16 03:10:05;;;;;;;5.00;0.80;;;13.10;99.90;;;;;;5072816;28;19930;-81
2022/10/16 03:12:31;;;;;;;;;;;13.20;99.90;;;;;;5072811;28;20047;-81
2022/10/16 03:14:57;;;;;;;2.03;0.82;;;13.20;99.90;;;;;;5071811;28;20010;-81
2022/10/16 03:17:24;;;;;;;2.88;0.90;;;13.20;99.90;;;;;;5055778;28;20040;-81
2022/10/16 03:19:50;;;;;;;4.68;1.25;;;13.20;99.90;;;;;;5055188;28;20045;-81
2022/10/16 03:22:15;;;;;;;3.60;1.30;;;13.30;99.90;;;;;;5072487;28;20047;-81
2022/10/16 03:24:41;;;;;;;4.05;1.27;;;13.20;99.90;;;;;;5071633;28;20511;-81
2022/10/16 03:27:08;;;;;;;3.15;1.48;;;13.30;99.90;;;;;;5055630;28;20047;-81
2022/10/16 03:29:34;;;;;;;8.82;1.38;;;13.30;99.90;;;;;;5055282;28;20147;-82
2022/10/16 03:32:00;;;;;;;2.17;0.90;;;13.30;99.90;;;;;;5038597;28;20119;-81
2022/10/16 03:34:26;;;;;;;4.25;1.00;;;13.20;99.90;;;;;;5055346;28;20044;-81
2022/10/16 03:36:52;;;;;;;3.33;1.42;;;13.20;99.90;;;;;;5054780;28;20080;-81
2022/10/16 03:39:18;;;;;;;3.15;1.00;;;13.10;99.90;;;;;;5055770;28;20404;-82
2022/10/16 03:41:43;;;;;;;1.95;0.95;;;13.10;99.90;;;;;;5071630;28;20066;-81
2022/10/16 03:44:09;;;;;;;3.10;1.07;;;13.10;99.90;;;;;;5055682;28;20047;-81
2022/10/16 03:46:35;;;;;;;3.35;1.30;;;13.00;99.90;;;;;;5071565;28;20291;-81
2022/10/16 03:49:00;;;;;;;1.97;1.07;;;13.00;99.90;;;;;;5054727;28;20075;-81
2022/10/16 03:51:26;;;;;;;2.65;1.30;;;12.90;99.90;;;;;;5071859;28;20106;-81
2022/10/16 03:53:52;;;;;;;2.33;1.03;;;12.90;99.90;;;;;;5071272;28;20098;-81
2022/10/16 03:56:18;;;;;;;4.07;1.38;;;12.80;99.90;;;;;;5055136;28;20275;-81
2022/10/16 03:58:44;;;;;;;2.40;0.90;;;12.90;99.90;;;;;;5071372;28;20036;-82
2022/10/16 04:01:09;;;;;;;3.40;1.20;;;12.90;99.90;;;;;;5038541;28;20284;-82
2022/10/16 04:03:35;;;;;;;4.17;1.27;;;12.90;99.90;;;;;;5055061;28;20044;-83
2022/10/16 04:06:01;;;;;;;2.90;1.20;;;12.80;99.90;;;;;;5071383;28;20345;-82
2022/10/16 04:08:26;;;;;;;3.13;1.27;;;12.80;99.90;;;;;;5071482;28;20279;-82
2022/10/16 04:10:52;;;;;;;2.70;1.08;;;12.80;99.90;;;;;;5054418;28;20098;-82
2022/10/16 04:13:18;;;;;;;4.10;1.53;;;12.70;99.90;;;;;;5054895;28;20040;-82
2022/10/16 04:15:45;;;;;;;4.18;1.63;;;12.70;99.90;;;;;;5054348;28;20282;-82
2022/10/16 04:18:11;;;;;;;4.18;1.27;;;12.70;99.90;;;;;;5071818;28;20408;-82
2022/10/16 04:20:36;;;;;;;3.10;1.25;;;12.70;99.90;;;;;;5071749;28;20055;-82
2022/10/16 04:23:02;;;;;;;2.70;1.10;;;12.70;99.90;;;;;;5053827;28;20055;-82
2022/10/16 04:25:28;;;;;;;4.10;1.35;;;12.70;99.90;;;;;;5054535;28;20650;-83
2022/10/16 04:27:55;;;;;;;3.35;1.15;;;12.70;99.90;;;;;;5070884;28;20052;-82
2022/10/16 04:30:22;;;;;;;2.25;1.10;;;12.60;99.90;;;;;;5054512;28;20040;-82
2022/10/16 04:32:51;;;;;;;2.47;1.35;;;12.70;99.90;;;;;;5070328;28;20040;-82
2022/10/16 04:35:21;;;;;;;6.70;1.35;;;12.60;99.90;;;;;;5054525;28;20036;-82
2022/10/16 04:37:46;;;;;;;2.42;1.23;;;12.60;99.90;;;;;;5070247;28;20048;-82
2022/10/16 04:40:13;;;;;;;5.00;1.27;;;12.60;99.90;;;;;;5070736;28;20403;-82
2022/10/16 04:42:39;;;;;;;2.05;1.08;;;12.60;99.90;;;;;;5070917;28;20283;-82
2022/10/16 04:45:05;;;;;;;4.55;1.48;;;12.70;99.90;;;;;;5054010;28;20503;-82
2022/10/16 04:47:31;;;;;;;7.22;1.40;;;12.70;99.90;;;;;;5037913;28;20024;-82
2022/10/16 04:49:57;;;;;;;4.28;1.75;;;12.70;99.90;;;;;;5054176;28;20086;-82
2022/10/16 04:52:24;;;;;;;5.03;1.43;;;12.70;99.90;;;;;;5037485;28;20037;-82
2022/10/16 04:54:50;;;;;;;7.40;1.77;;;12.70;99.90;;;;;;5069479;28;20119;-82
2022/10/16 04:57:16;;;;;;;4.38;1.20;;;12.70;99.90;;;;;;5053197;28;20167;-82
2022/10/16 04:59:42;;;;;;;5.13;1.00;;;12.80;99.90;;;;;;5052911;28;20040;-81
2022/10/16 05:02:08;;;;;;;3.60;1.20;;;12.90;99.90;;;;;;5070310;28;20044;-81
2022/10/16 05:04:33;;;;;;;3.67;1.25;;;12.90;99.90;;;;;;5069794;28;20436;-82
2022/10/16 05:06:59;;;;;;;5.93;1.38;;;12.80;99.90;;;;;;5069574;28;20036;-81
2022/10/16 05:09:25;;;;;;;3.78;1.25;;;12.90;99.90;;;;;;5070095;28;20048;-81
2022/10/16 05:11:50;;;;;;;3.47;1.40;;;12.90;99.90;;;;;;5053244;28;20039;-81
2022/10/16 05:14:16;;;;;;;4.40;1.30;;;12.90;99.90;;;;;;5053300;28;20394;-81
2022/10/16 05:16:42;;;;;;;5.03;1.60;;;12.80;99.90;;;;;;5053652;28;20510;-82
2022/10/16 05:19:07;;;;;;;4.45;1.38;;;12.80;99.90;;;;;;5069680;28;20068;-82
2022/10/16 05:21:33;;;;;;;4.43;1.50;;;12.80;99.90;;;;;;5053584;28;20055;-82
2022/10/16 05:23:59;;;;;;;5.43;1.58;;;12.80;99.90;;;;;;5053070;28;20040;-82
2022/10/16 05:26:24;;;;;;;4.43;1.40;;;12.80;99.90;;;;;;5070460;28;20044;-82
2022/10/16 05:28:50;;;;;;;4.50;1.80;;;12.70;99.90;;;;;;5036678;28;20354;-82
2022/10/16 05:31:16;;;;;;;3.33;1.73;;;12.60;99.90;;;;;;5053512;28;20275;-82
2022/10/16 05:33:43;;;;;;;6.13;2.13;;;12.70;99.90;;;;;;5053375;28;20512;-82
2022/10/16 05:36:09;;;;;;;5.18;1.75;;;12.60;99.90;;;;;;5069670;28;20076;-82
2022/10/16 05:38:37;;;;;;;4.85;1.83;;;12.60;99.90;;;;;;5069562;28;20046;-81
2022/10/16 05:41:03;;;;;;;2.38;1.63;;;12.60;99.90;;;;;;5036585;28;20048;-82
2022/10/16 05:43:30;;;;;;;6.60;1.77;;;12.50;99.90;;;;;;5070001;28;20392;-82
2022/10/16 05:45:57;;;;;;;;;;;12.50;99.90;;;;;;5053164;28;20036;-81
2022/10/16 05:48:23;;;;;;;5.28;1.75;;;12.50;99.90;;;;;;5086580;28;19923;-81
2022/10/16 05:50:55;;;;;;;4.85;1.88;;;12.50;99.90;;;;;;5069890;28;20036;-81
2022/10/16 05:53:25;;;;;;;4.32;1.88;;;12.50;99.90;;;;;;5052960;28;20045;-81
2022/10/16 05:55:55;;;;;;;4.25;2.00;;;12.50;99.90;;;;;;5069295;28;20037;-81
2022/10/16 05:58:22;;;;;;;3.78;1.90;;;12.50;99.90;;;;;;5069821;28;20033;-81
2022/10/16 06:00:59;;;;;;;4.57;1.83;;;12.60;99.90;;;;;;5069556;28;20028;-81
2022/10/16 06:03:25;;;;;;;5.32;1.80;;;12.60;99.90;;;;;;5068667;28;20032;-81
2022/10/16 06:05:51;;;;;;;6.43;1.83;;;12.60;99.90;;;;;;5053022;28;20143;-81
2022/10/16 06:08:18;;;;;;;5.57;1.92;;;12.60;99.90;;;;;;5036862;28;20038;-81
2022/10/16 06:10:45;;;;;;;2.95;1.83;;;12.70;99.90;;;;;;5052741;28;20083;-81
2022/10/16 06:13:12;;;;;;;5.55;1.77;;;12.70;99.90;;;;;;5069117;28;20048;-81
2022/10/16 06:15:38;;;;;;;4.15;1.95;;;12.70;99.90;;;;;;5036403;28;20511;-81
2022/10/16 06:18:05;;;;;;;4.18;2.00;;;12.70;99.90;;;;;;5072542;28;20116;-81
2022/10/16 06:20:31;;;;;;;3.45;1.77;;;12.80;99.90;;;;;;5056883;28;20115;-81
2022/10/16 06:22:57;;;;;;;7.13;2.45;;;12.80;99.90;;;;;;5073181;28;20457;-81
2022/10/16 06:25:23;;;;;;;5.43;1.85;;;12.80;99.90;;;;;;5056834;28;20039;-81
2022/10/16 06:27:48;;;;;;;7.77;2.50;;;12.90;99.90;;;;;;5056796;28;21305;-82
2022/10/16 06:30:14;;;;;;;5.47;1.90;;;12.90;99.90;;;;;;5056833;28;20274;-81
2022/10/16 06:32:42;;;;;;;5.03;2.00;;;13.00;99.90;;;;;;5073221;28;20049;-82
2022/10/16 06:35:08;;;;;;;5.93;1.98;;;13.00;99.90;;;;;;5072955;28;20036;-82
2022/10/16 06:37:33;;;;;;;5.20;2.05;;;13.10;99.90;;;;;;5073334;28;20075;-82
2022/10/16 06:40:00;;;;;;;3.40;2.08;;;13.10;99.90;;;;;;5072792;28;20043;-82
2022/10/16 06:42:25;;;;;;;5.95;1.85;;;13.10;99.90;;;;;;5056642;28;20086;-83
2022/10/16 06:44:51;;;;;;;4.25;1.67;;;13.20;99.90;;;;;;5040056;28;20032;-82
2022/10/16 06:47:17;;;;;;;4.75;2.13;;;13.20;99.90;;;;;;5039923;28;20036;-81
2022/10/16 06:49:43;;;;;;;7.25;2.08;;;13.50;99.90;;;;;;5056778;28;20549;-81
2022/10/16 06:52:08;;;;;;;5.50;1.83;;;13.40;99.90;;;;;;5056434;28;20164;-81
2022/10/16 06:54:34;;;;;;;4.33;1.70;;;13.50;99.90;;;;;;5039422;28;20048;-81
2022/10/16 06:57:01;;;;;;;4.40;1.47;;;13.50;99.90;;;;;;5055862;28;20318;-82
2022/10/16 06:59:27;;;;;;;4.22;1.50;;;13.50;99.90;;;;;;5073048;28;20503;-81
2022/10/16 07:01:53;;;;;;;5.88;1.77;;;13.50;99.90;;;;;;5055936;28;20037;-81
2022/10/16 07:04:18;;;;;;;2.80;1.70;;;13.50;99.90;;;;;;5072598;28;20036;-81
2022/10/16 07:06:44;;;;;;;4.85;1.73;;;13.50;99.90;;;;;;5038850;28;20287;-80
2022/10/16 07:09:11;;;;;;;8.30;2.03;;;13.50;99.90;;;;;;5072215;28;20068;-81
2022/10/16 07:11:38;;;;;;;4.50;1.83;;;13.50;99.90;;;;;;5073034;28;20310;-81
2022/10/16 07:14:05;;;;;;;3.97;1.70;;;13.40;99.90;;;;;;5071976;28;20072;-81
2022/10/16 07:16:31;;;;;;;;;;;13.40;99.90;;;;;;5056624;28;20036;-81
2022/10/16 07:18:59;;;;;;;3.33;2.05;;;13.40;99.90;;;;;;5071814;28;19916;-82
2022/10/16 07:21:28;;;;;;;3.17;1.30;;;13.50;99.90;;;;;;5072326;28;20115;-82
2022/10/16 07:23:56;;;;;;;5.22;2.00;;;13.50;99.90;;;;;;5072469;28;20040;-82
2022/10/16 07:26:23;;;;;;;4.65;1.63;;;13.50;99.90;;;;;;5072846;28;20121;-82
2022/10/16 07:28:50;;;;;;;4.18;1.80;;;13.50;99.90;;;;;;5071762;28;20097;-80
2022/10/16 07:31:17;;;;;;;4.95;1.83;;;13.50;99.90;;;;;;5054854;28;20115;-79
2022/10/16 07:33:44;;;;;;;4.82;1.98;;;13.40;99.90;;;;;;5072262;28;20487;-80
2022/10/16 07:36:11;;;;;;;6.35;2.28;;;13.40;99.90;;;;;;5071570;28;20161;-79
2022/10/16 07:38:37;;;;;;;6.47;1.80;;;13.40;99.90;;;;;;5071295;28;20052;-78
2022/10/16 07:41:06;;;;;;;2.60;1.67;;;13.30;99.90;;;;;;5071704;28;20039;-81
2022/10/16 07:43:32;;;;;;;3.85;1.73;;;13.40;99.90;;;;;;5055272;28;20074;-80
2022/10/16 07:45:58;;;;;;;;;;;13.40;99.90;;;;;;5072371;28;20452;-80
2022/10/16 07:48:26;;;;;;;5.93;1.92;;;13.40;99.90;;;;;;5055396;28;19978;-80
2022/10/16 07:50:52;;;;;;;2.97;1.92;;;13.40;99.90;;;;;;5069968;28;20037;-80
2022/10/16 07:53:18;;;;;;;3.30;1.70;;;13.50;99.90;;;;;;5071614;28;20040;-80
2022/10/16 07:55:43;;;;;;;5.45;1.77;;;13.50;99.90;;;;;;5071411;28;20040;-80
2022/10/16 07:58:09;;;;;;;5.00;2.05;;;13.70;99.90;;;;;;5054889;28;20040;-83
2022/10/16 08:00:36;;;;;;;6.00;2.00;;;13.90;99.90;;;;;;5038669;28;20086;-82
2022/10/16 08:03:02;;;;;;;3.50;1.60;;;13.90;99.90;;;;;;5071488;28;20040;-82
2022/10/16 08:05:29;;;;;;;3.35;1.70;;;14.30;99.90;;;;;;5055044;28;20393;-83
2022/10/16 08:07:55;;;;;;;9.90;2.03;;;14.90;99.90;;;;;;5055142;28;20032;-82
2022/10/16 08:10:24;;;;;;;6.32;1.70;;;15.50;99.90;;;;;;5072218;28;20120;-83
2022/10/16 08:12:50;;;;;;;4.15;1.67;;;16.10;99.90;;;;;;5055203;28;20040;-82
2022/10/16 08:15:17;;;;;;;5.05;1.38;;;16.10;99.90;;;;;;5071887;28;20041;-83
2022/10/16 08:17:42;;;;;;;;;;;16.00;99.90;;;;;;5055643;28;20040;-83
2022/10/16 08:20:09;;;;;;;3.60;1.42;;;16.20;99.90;;;;;;5055502;28;20284;-84
2022/10/16 08:22:34;;;;;;;;;;;16.70;99.90;;;;;;5070773;28;20040;-84
2022/10/16 08:25:00;;;;;;;5.15;1.38;;;16.70;99.90;;;;;;5072086;28;19916;-85
2022/10/16 08:27:31;;;;;;;2.30;1.10;;;16.40;99.90;;;;;;5036768;28;20041;-83
2022/10/16 08:29:57;;;;;;;3.88;1.20;;;16.30;99.90;;;;;;5053305;28;20040;-83
2022/10/16 08:32:23;;;;;;;3.63;1.30;;;16.70;99.90;;;;;;5069933;28;20542;-83
2022/10/16 08:34:49;;;;;;;4.13;1.13;;;17.40;99.90;;;;;;5053808;28;20032;-83
2022/10/16 08:37:14;;;;;;;3.67;1.15;;;17.90;99.90;;;;;;5067804;28;20045;-83
2022/10/16 08:39:40;;;;;;;4.20;1.02;;;18.30;99.90;;;;;;5052822;28;20098;-83
2022/10/16 08:42:33;;;;;;;4.20;1.13;;;18.60;99.90;;;;;;5052965;28;20029;-83
2022/10/16 08:45:25;;;;;;;6.28;1.10;;;18.90;99.90;;;;;;5045152;28;20040;-83
2022/10/16 08:48:07;;;;;;;4.68;1.40;;;19.10;99.90;;;;;;5060348;28;20049;-83
2022/10/16 08:50:38;;;;;;;3.33;0.90;;;19.20;99.90;;;;;;5069876;28;20036;-83
2022/10/16 08:53:06;;;;;;;3.80;0.90;;;19.60;99.90;;;;;;5050913;28;20043;-84
2022/10/16 08:55:38;;;;;;;5.75;0.90;;;19.50;99.90;;;;;;5071312;28;20055;-83
2022/10/16 08:58:18;;;;;;;3.70;0.80;;;19.50;99.90;;;;;;5051978;28;20471;-84
2022/10/16 09:00:49;;;;;;;6.93;2.03;;;19.70;99.90;;;;;;5069733;28;20036;-83
2022/10/16 09:03:20;;;;;;;4.28;0.88;;;20.00;99.90;;;;;;5069431;28;20032;-84
2022/10/16 09:05:54;;;;;;;4.00;0.80;;;20.20;99.90;;;;;;5050995;28;21633;-83
2022/10/16 09:08:54;;;;;;;2.15;0.70;;;19.70;99.90;;;;;;5067223;28;20048;-84
2022/10/16 09:11:44;;;;;;;4.78;0.80;;;19.30;99.90;;;;;;5067971;28;20067;-83
2022/10/16 09:14:36;;;;;;;3.78;0.88;;;19.70;99.90;;;;;;5066833;28;20043;-83
2022/10/16 09:17:21;;;;;;;6.40;1.30;;;20.10;99.90;;;;;;5068918;28;20032;-84
2022/10/16 09:20:04;;;;;;;5.88;1.25;;;20.50;99.90;;;;;;5066937;28;20041;-84
2022/10/16 09:22:32;;;;;;;3.15;0.85;;;20.50;99.90;;;;;;5048619;28;20033;-82
2022/10/16 09:25:09;;;;;;;6.03;1.48;;;20.40;99.90;;;;;;5051578;28;20048;-81
2022/10/16 09:27:35;;;;;;;7.50;1.20;;;20.70;99.90;;;;;;5069598;28;20480;-82
2022/10/16 09:30:39;;;;;;;7.45;1.13;;;20.60;99.90;;;;;;5067456;28;20110;-82
2022/10/16 09:33:06;;;;;;;6.45;1.05;;;20.20;99.90;;;;;;5053794;28;20505;-81
2022/10/16 09:35:39;;;;;;;5.07;1.30;;;20.40;99.90;;;;;;5070712;28;20037;-82
2022/10/16 09:38:06;;;;;;;7.80;1.38;;;20.50;99.90;;;;;;5053830;28;20496;-82
2022/10/16 09:40:38;;;;;;;7.95;1.38;;;20.20;99.90;;;;;;5070230;28;20041;-82
2022/10/16 09:43:28;;;;;;;5.28;1.00;;;19.80;99.90;;;;;;5071051;28;20510;-82
2022/10/16 09:46:19;;;;;;;8.02;1.40;;;19.60;99.90;;;;;;5068111;28;20408;-83
2022/10/16 09:48:48;;;;;;;4.70;1.23;;;19.80;99.90;;;;;;5069142;28;20387;-84
2022/10/16 09:51:21;;;;;;;6.43;1.52;;;20.10;99.90;;;;;;5054702;28;20437;-82
2022/10/16 09:53:47;;;;;;;9.60;1.50;;;20.50;99.90;;;;;;5068743;28;20044;-82
2022/10/16 09:56:23;;;;;;;7.35;1.80;;;20.50;99.90;;;;;;5071702;28;20041;-83
2022/10/16 09:58:55;;;;;;;8.48;1.58;;;20.20;99.90;;;;;;5070080;28;20028;-83
2022/10/16 10:01:25;;;;;;;8.45;1.50;;;20.20;99.90;;;;;;5068651;28;20558;-82
2022/10/16 10:04:00;;;;;;;7.65;1.75;;;20.50;99.90;;;;;;5052168;28;20084;-82
2022/10/16 10:06:29;;;;;;;8.95;1.92;;;20.90;99.90;;;;;;5068739;28;20036;-83
2022/10/16 10:09:03;;;;;;;7.60;1.50;;;20.80;99.90;;;;;;5052067;28;20086;-83
2022/10/16 10:11:39;;;;;;;8.93;1.80;;;20.40;99.90;;;;;;5068362;28;20094;-83
2022/10/16 10:14:28;;;;;;;8.48;1.65;;;20.50;99.90;;;;;;5049827;28;20134;-83
2022/10/16 10:17:15;;;;;;;8.25;1.55;;;20.60;99.90;;;;;;5067898;28;20029;-83
2022/10/16 10:19:47;;;;;;;10.18;1.63;;;21.20;99.90;;;;;;5068497;28;20040;-83
2022/10/16 10:22:37;;;;;;;7.80;1.65;;;21.70;99.90;;;;;;5068955;28;20171;-83
2022/10/16 10:25:09;;;;;;;7.68;1.75;;;22.20;99.90;;;;;;5069143;28;20484;-83
2022/10/16 10:27:46;;;;;;;6.07;1.27;;;22.70;99.90;;;;;;5066442;28;20048;-83
2022/10/16 10:30:38;;;;;;;8.02;1.50;;;23.00;99.90;;;;;;5052260;28;20032;-83
2022/10/16 10:33:42;;;;;;;6.22;1.30;;;23.20;99.90;;;;;;5068727;28;20041;-83
2022/10/16 10:36:37;;;;;;;8.27;1.67;;;23.20;99.90;;;;;;5067966;28;20064;-83
2022/10/16 10:39:25;;;;;;;10.02;1.60;;;23.00;99.90;;;;;;5050329;28;20036;-83
2022/10/16 10:42:02;;;;;;;7.20;1.70;;;22.80;99.90;;;;;;5068775;28;20036;-83
2022/10/16 10:44:27;;;;;;;;;;;22.60;99.90;;;;;;5068775;28;20044;-83
2022/10/16 10:47:02;;;;;;;7.90;1.48;;;22.40;99.90;;;;;;5068487;28;19916;-83
2022/10/16 10:49:42;;;;;;;8.15;1.50;;;22.40;99.90;;;;;;5068348;28;20049;-83
2022/10/16 10:52:33;;;;;;;10.35;1.98;;;22.40;99.90;;;;;;5068383;28;20037;-83
2022/10/16 10:55:20;;;;;;;8.15;1.40;;;22.80;99.90;;;;;;5068056;28;20517;-83
2022/10/16 10:58:10;;;;;;;9.40;1.50;;;22.70;99.90;;;;;;5052252;28;20032;-82
2022/10/16 11:01:00;;;;;;;6.90;1.30;;;22.80;99.90;;;;;;5068031;28;20060;-82
2022/10/16 11:03:31;;;;;;;8.15;1.45;;;22.70;99.90;;;;;;5069021;28;20119;-82
2022/10/16 11:06:03;;;;;;;5.00;1.48;;;22.90;99.90;;;;;;5072146;28;20040;-82
2022/10/16 11:08:40;;;;;;;5.93;1.45;;;23.10;99.90;;;;;;5055062;28;20051;-82
2022/10/16 11:11:39;;;;;;;7.28;1.50;;;23.10;99.90;;;;;;5055466;28;20032;-82
2022/10/16 11:14:22;;;;;;;7.22;1.33;;;23.80;99.90;;;;;;5052399;28;20048;-82
2022/10/16 11:17:01;;;;;;;9.18;1.70;;;23.60;99.90;;;;;;5055256;28;20040;-82
2022/10/16 11:20:05;;;;;;;10.65;1.80;;;23.60;99.90;;;;;;5071876;28;20033;-82
2022/10/16 11:22:40;;;;;;;8.15;1.40;;;23.80;99.70;;;;;;5071460;28;20035;-82
2022/10/16 11:25:23;;;;;;;9.30;1.95;;;23.40;99.70;;;;;;5071783;28;20037;-83
2022/10/16 11:28:07;;;;;;;8.98;1.58;;;22.40;99.90;;;;;;5071726;28;20397;-83
2022/10/16 11:30:53;;;;;;;7.57;1.38;;;22.30;99.90;;;;;;5054919;28;20072;-83
2022/10/16 11:33:44;;;;;;;11.23;1.87;;;22.80;99.90;;;;;;5055532;28;20492;-83
2022/10/16 11:36:25;;;;;;;5.82;1.30;;;23.40;99.90;;;;;;5072070;28;20047;-83
2022/10/16 11:38:54;;;;;;;8.27;1.55;;;24.10;99.90;;;;;;5071590;28;20148;-83
2022/10/16 11:41:49;;;;;;;8.32;1.60;;;24.60;98.80;;;;;;5055271;28;20048;-83
2022/10/16 11:44:33;;;;;;;8.32;1.65;;;24.70;98.70;;;;;;5071931;28;20043;-83
2022/10/16 11:47:21;;;;;;;8.73;1.52;;;25.10;98.50;;;;;;5069517;28;20055;-83
2022/10/16 11:49:57;;;;;;;7.90;1.45;;;25.00;98.50;;;;;;5070719;28;20036;-83
2022/10/16 11:52:30;;;;;;;6.30;1.40;;;24.90;99.00;;;;;;5072113;28;20507;-83
2022/10/16 11:55:05;;;;;;;7.65;1.50;;;25.00;98.90;;;;;;5069977;28;20044;-83
2022/10/16 11:57:42;;;;;;;5.38;1.20;;;25.40;97.70;;;;;;5054832;28;20069;-83
2022/10/16 12:00:19;;;;;;;;;;;25.80;97.50;;;;;;5072370;28;20033;-83
2022/10/16 12:03:05;;;;;;;9.95;1.42;;;25.60;97.20;;;;;;5054809;28;19922;-84
2022/10/16 12:05:55;;;;;;;8.88;1.35;;;25.20;97.00;;;;;;5070144;28;20042;-84
2022/10/16 12:08:21;;;;;;;7.82;1.63;;;24.90;97.90;;;;;;5071360;28;20071;-83
2022/10/16 12:10:47;;;;;;;;;;;24.40;98.60;;;;;;5055055;28;20063;-83
2022/10/16 12:13:36;;;;;;;7.97;1.38;;;23.80;98.60;;;;;;5071328;28;19926;-83
2022/10/16 12:16:11;;;;;;;5.43;1.17;;;23.00;98.90;;;;;;5055111;28;20480;-83
2022/10/16 12:18:37;;;;;;;8.02;1.42;;;22.60;98.70;;;;;;5069184;28;20070;-83
2022/10/16 12:21:07;;;;;;;7.30;1.63;;;22.50;99.60;;;;;;5054803;28;20380;-83
2022/10/16 12:23:54;;;;;;;5.90;1.27;;;22.50;99.60;;;;;;5071325;28;20043;-83
2022/10/16 12:26:41;;;;;;;7.32;1.48;;;22.20;99.90;;;;;;5055223;28;20123;-83
2022/10/16 12:29:13;;;;;;;;;;;22.10;99.90;;;;;;5069614;28;20040;-83
2022/10/16 12:31:47;;;;;;;7.75;1.50;;;22.10;99.90;;;;;;5070962;28;19963;-83
2022/10/16 12:34:31;;;;;;;7.15;1.38;;;22.00;99.90;;;;;;5069422;28;20036;-83
2022/10/16 12:37:23;;;;;;;8.00;1.33;;;21.60;99.90;;;;;;5070545;28;20504;-83
2022/10/16 12:39:49;;;;;;;9.00;1.58;;;21.20;99.90;;;;;;5052980;28;20123;-83
2022/10/16 12:42:34;;;;;;;7.20;1.42;;;21.20;99.90;;;;;;5054784;28;20394;-83
2022/10/16 12:45:01;;;;;;;8.20;1.45;;;21.10;99.90;;;;;;5070944;28;20049;-83
2022/10/16 12:47:29;;;;;;;8.85;1.52;;;20.60;99.90;;;;;;5054954;28;20427;-83
2022/10/16 12:49:56;;;;;;;7.70;1.50;;;20.50;99.90;;;;;;5054228;28;20072;-83
2022/10/16 12:52:38;;;;;;;6.60;1.75;;;20.10;99.90;;;;;;5054468;28;20063;-84
2022/10/16 12:55:15;;;;;;;7.15;1.65;;;20.00;99.90;;;;;;5069808;28;20052;-84
2022/10/16 12:58:11;;;;;;;8.18;1.30;;;19.80;99.90;;;;;;5054165;28;20042;-84
2022/10/16 13:01:08;;;;;;;6.60;1.30;;;19.80;99.90;;;;;;5053872;28;20040;-84
2022/10/16 13:04:03;;;;;;;7.80;1.40;;;19.80;99.90;;;;;;5069628;28;20055;-83
2022/10/16 13:06:35;;;;;;;10.80;1.25;;;19.80;99.90;;;;;;5053059;28;20123;-84
2022/10/16 13:09:29;;;;;;;5.82;1.20;;;19.70;99.90;;;;;;5052275;28;20684;-84
2022/10/16 13:12:00;;;;;;;9.05;1.27;;;19.80;99.90;;;;;;5071040;28;20553;-83